AEP weather

Jorge Newbery Airpark
Buenos Aires, Capital federal, Argentina

Public forecast

Using degrees Celsius for public forecast. Weather courtesy of forecast.io.

Current aviation weather report (METAR) for Jorge Newbery Airpark

Retrieved 2019/10/20 07:00 UTC (16 minutes ago):

SABE 200700Z 12011KT CAVOK 14/10 Q1019 NOSIG

Aviation forecast (TAF) for Jorge Newbery Airpark

Retrieved 2019/10/20 06:00 UTC (1 hour ago):

TAF SABE 200500Z 2006/2106 09015KT CAVOK TX23/1919Z TN13/2009Z BECMG 2011/2013 09010KT 9999 SCT030 BKN100 TEMPO 2023/2104 VRB03KT 7000 SHRA BKN020 FEW040CB OVC100 BECMG 2104/2106 15010KT SCT015 BKN030